Time;durP1;ratioP1;P1;durP2;ratioP2;P2;SDS_P1;SDS_P2;PMS_P1;PMS_P2;Temp;Humidity;BMP_temperature;BMP_pressure;BME280_temperature;BME280_humidity;BME280_pressure;Samples;Min_cycle;Max_cycle;Signal;HPM_P1;HPM_P2
2022/06/06 00:00:45;;;;;;;9.38;6.70;;;14.40;99.90;;;;;;4984722;28;20084;-81
2022/06/06 00:03:11;;;;;;;13.80;8.73;;;14.40;99.90;;;;;;4984562;28;20125;-81
2022/06/06 00:05:41;;;;;;;10.90;6.90;;;14.40;99.90;;;;;;4984463;28;20042;-81
2022/06/06 00:08:07;;;;;;;11.98;7.50;;;14.40;99.90;;;;;;4982919;28;20096;-81
2022/06/06 00:10:32;;;;;;;11.55;7.05;;;14.40;99.90;;;;;;4984765;28;20054;-81
2022/06/06 00:12:58;;;;;;;15.13;6.55;;;14.40;99.90;;;;;;4984956;28;20493;-81
2022/06/06 00:15:24;;;;;;;10.00;6.38;;;14.40;99.90;;;;;;4983943;28;20062;-81
2022/06/06 00:17:49;;;;;;;7.30;5.78;;;14.40;99.90;;;;;;4984178;28;20055;-81
2022/06/06 00:20:16;;;;;;;12.20;6.28;;;14.30;99.90;;;;;;4983860;28;20070;-81
2022/06/06 00:22:43;;;;;;;9.73;6.03;;;14.30;99.90;;;;;;4983613;28;20046;-81
2022/06/06 00:25:09;;;;;;;10.65;6.90;;;14.30;99.90;;;;;;4983624;28;20042;-80
2022/06/06 00:27:35;;;;;;;10.63;7.00;;;14.30;99.90;;;;;;4983445;28;20053;-81
2022/06/06 00:30:01;;;;;;;14.85;8.40;;;14.30;99.90;;;;;;4983317;28;20042;-80
2022/06/06 00:35:10;;;;;;;9.75;6.93;;;14.20;99.90;;;;;;4983395;28;20152;-81
2022/06/06 00:37:38;;;;;;;13.50;6.53;;;14.20;99.90;;;;;;4983153;28;20105;-80
2022/06/06 00:40:08;;;;;;;8.32;6.07;;;14.20;99.90;;;;;;4983504;28;20208;-81
2022/06/06 00:42:38;;;;;;;11.13;5.72;;;14.20;99.90;;;;;;4983356;28;20054;-81
2022/06/06 00:45:24;;;;;;;6.28;5.68;;;14.20;99.90;;;;;;4983203;28;20039;-82
2022/06/06 00:47:52;;;;;;;6.43;5.25;;;14.10;99.90;;;;;;4972027;28;20050;-81
2022/06/06 00:50:33;;;;;;;6.80;5.32;;;14.10;99.90;;;;;;4982434;28;20034;-82
2022/06/06 00:53:00;;;;;;;6.47;4.97;;;14.00;99.90;;;;;;4982439;28;20515;-81
2022/06/06 00:55:31;;;;;;;10.40;5.53;;;14.00;99.90;;;;;;4982475;28;20117;-81
2022/06/06 00:58:01;;;;;;;7.60;4.45;;;14.00;99.90;;;;;;4983510;28;20085;-81
2022/06/06 01:00:27;;;;;;;10.55;5.32;;;14.00;99.90;;;;;;4983421;28;20046;-81
2022/06/06 01:02:56;;;;;;;9.07;4.32;;;14.00;99.90;;;;;;4981751;28;20193;-81
2022/06/06 01:05:24;;;;;;;5.70;4.60;;;13.90;99.90;;;;;;4982625;28;20065;-81
2022/06/06 01:07:49;;;;;;;5.95;5.25;;;13.90;99.90;;;;;;4980957;28;20449;-81
2022/06/06 01:10:16;;;;;;;9.20;5.20;;;13.90;99.90;;;;;;4982515;28;20177;-81
2022/06/06 01:12:47;;;;;;;9.63;4.45;;;13.90;99.90;;;;;;4981209;28;20042;-82
2022/06/06 01:15:15;;;;;;;9.45;5.60;;;13.90;99.90;;;;;;4982345;28;20456;-82
2022/06/06 01:18:05;;;;;;;10.15;5.45;;;13.90;99.90;;;;;;4981159;28;20046;-81
2022/06/06 01:20:55;;;;;;;5.72;4.68;;;13.90;99.90;;;;;;4981598;28;20038;-81
2022/06/06 01:23:31;;;;;;;7.55;5.93;;;13.80;99.90;;;;;;4981612;28;20259;-82
2022/06/06 01:26:41;;;;;;;9.18;5.38;;;13.80;99.90;;;;;;4982655;28;20038;-81
2022/06/06 01:29:13;;;;;;;6.25;4.63;;;13.80;99.90;;;;;;4943988;28;20047;-81
2022/06/06 01:31:48;;;;;;;9.60;5.70;;;13.80;99.90;;;;;;4944264;28;20055;-81
2022/06/06 01:34:28;;;;;;;6.35;3.90;;;13.80;99.90;;;;;;4966283;28;20054;-82
2022/06/06 01:36:55;;;;;;;7.40;4.57;;;13.80;99.90;;;;;;4981909;28;20082;-80
2022/06/06 01:39:23;;;;;;;6.75;5.82;;;13.80;99.90;;;;;;4980863;28;20054;-82
2022/06/06 01:42:05;;;;;;;20.20;5.53;;;13.70;99.90;;;;;;4982739;28;20047;-82
2022/06/06 01:44:32;;;;;;;6.75;5.68;;;13.70;99.90;;;;;;4981356;28;20121;-81
2022/06/06 01:47:03;;;;;;;9.27;5.47;;;13.70;99.90;;;;;;4975486;28;20046;-82
2022/06/06 01:49:32;;;;;;;9.98;5.15;;;13.70;99.90;;;;;;4962377;28;20054;-81
2022/06/06 01:52:10;;;;;;;12.27;6.13;;;13.60;99.90;;;;;;4962250;28;20042;-82
2022/06/06 01:54:36;;;;;;;14.10;5.65;;;13.70;99.90;;;;;;4961810;28;20050;-82
2022/06/06 01:57:04;;;;;;;14.73;6.05;;;13.70;99.90;;;;;;4972981;28;20054;-82
2022/06/06 01:59:30;;;;;;;20.23;5.45;;;13.60;99.90;;;;;;4981260;28;20046;-82
2022/06/06 02:01:56;;;;;;;11.88;5.30;;;13.70;99.90;;;;;;4997171;28;20047;-82
2022/06/06 02:04:21;;;;;;;14.50;7.13;;;13.60;99.90;;;;;;4981084;28;20057;-82
2022/06/06 02:06:47;;;;;;;11.35;5.90;;;13.70;99.90;;;;;;4981079;28;20053;-82
2022/06/06 02:09:14;;;;;;;13.35;5.40;;;13.70;99.90;;;;;;4980462;28;20038;-81
2022/06/06 02:11:40;;;;;;;13.23;5.75;;;13.70;99.90;;;;;;4980916;28;20047;-81
2022/06/06 02:14:07;;;;;;;10.55;5.57;;;13.70;99.90;;;;;;4981986;28;20081;-82
2022/06/06 02:16:33;;;;;;;10.02;5.57;;;13.70;99.90;;;;;;4981838;28;20053;-81
2022/06/06 02:18:59;;;;;;;6.82;5.88;;;13.70;99.90;;;;;;4982700;28;20042;-82
2022/06/06 02:21:24;;;;;;;13.10;5.85;;;13.70;99.90;;;;;;4981789;28;20046;-82
2022/06/06 02:23:50;;;;;;;6.40;5.45;;;13.60;99.90;;;;;;4981233;28;20437;-82
2022/06/06 02:26:16;;;;;;;6.72;4.63;;;13.60;99.90;;;;;;4981828;28;20053;-81
2022/06/06 02:28:42;;;;;;;13.63;5.10;;;13.60;99.90;;;;;;4982141;28;20441;-81
2022/06/06 02:31:08;;;;;;;10.23;5.55;;;13.70;99.90;;;;;;4980548;28;20055;-81
2022/06/06 02:33:35;;;;;;;13.02;6.43;;;13.60;99.90;;;;;;4982059;28;20096;-82
2022/06/06 02:36:01;;;;;;;5.68;4.22;;;13.70;99.90;;;;;;4981667;28;20117;-80
2022/06/06 02:38:27;;;;;;;9.25;5.45;;;13.70;99.90;;;;;;4981850;28;20442;-81
2022/06/06 02:40:53;;;;;;;14.85;5.28;;;13.70;99.90;;;;;;4964105;28;20052;-82
2022/06/06 02:43:21;;;;;;;10.95;6.55;;;13.70;99.90;;;;;;4982064;28;20121;-82
2022/06/06 02:45:48;;;;;;;10.05;4.90;;;13.70;99.90;;;;;;4981927;28;20121;-81
2022/06/06 02:48:14;;;;;;;5.43;4.30;;;13.70;99.90;;;;;;4980678;28;20047;-80
2022/06/06 02:50:40;;;;;;;6.82;4.45;;;13.70;99.90;;;;;;4980727;28;20044;-81
2022/06/06 02:53:06;;;;;;;6.45;5.65;;;13.70;99.90;;;;;;4980957;28;20038;-81
2022/06/06 02:55:34;;;;;;;8.13;5.28;;;13.70;99.90;;;;;;4981842;28;20127;-81
2022/06/06 02:58:01;;;;;;;4.90;4.22;;;13.70;99.90;;;;;;4982455;28;20054;-82
2022/06/06 03:00:29;;;;;;;10.70;4.97;;;13.70;99.90;;;;;;4981458;28;20053;-81
2022/06/06 03:02:55;;;;;;;8.20;4.97;;;13.60;99.90;;;;;;4981699;28;20047;-82
2022/06/06 03:05:23;;;;;;;13.95;4.88;;;13.60;99.90;;;;;;4981814;28;20046;-81
2022/06/06 03:08:27;;;;;;;10.88;5.22;;;13.60;99.90;;;;;;4981231;28;20177;-81
2022/06/06 03:11:11;;;;;;;6.45;4.45;;;13.70;99.90;;;;;;4980693;28;20046;-82
2022/06/06 03:14:14;;;;;;;5.35;4.18;;;13.60;99.90;;;;;;4981903;28;20038;-81
2022/06/06 03:20:49;;;;;;;4.68;4.25;;;13.70;99.90;;;;;;4985040;28;20132;-82
2022/06/06 03:23:39;;;;;;;7.82;4.43;;;13.70;99.90;;;;;;4984433;28;20117;-82
2022/06/06 03:26:14;;;;;;;4.88;3.88;;;13.70;99.90;;;;;;4983299;28;20100;-81
2022/06/06 03:28:39;;;;;;;6.30;4.40;;;13.70;99.90;;;;;;4985231;28;20042;-81
2022/06/06 03:31:39;;;;;;;6.93;4.20;;;13.70;99.90;;;;;;4984656;28;20057;-81
2022/06/06 03:34:37;;;;;;;10.75;3.95;;;13.70;99.90;;;;;;4978246;28;20046;-82
2022/06/06 03:37:41;;;;;;;4.28;3.95;;;13.70;99.90;;;;;;4964681;28;20090;-82
2022/06/06 03:40:29;;;;;;;4.70;4.25;;;13.70;99.90;;;;;;4953628;28;20051;-82
2022/06/06 03:43:11;;;;;;;4.13;3.53;;;13.70;99.90;;;;;;4965576;28;20086;-81
2022/06/06 03:45:45;;;;;;;10.55;4.68;;;13.60;99.90;;;;;;4963683;28;20386;-82
2022/06/06 03:48:49;;;;;;;6.72;4.70;;;13.70;99.90;;;;;;4982161;28;20481;-81
2022/06/06 03:51:50;;;;;;;6.32;5.20;;;13.70;99.90;;;;;;4962569;28;20124;-82
2022/06/06 03:54:19;;;;;;;6.60;4.70;;;13.70;99.90;;;;;;4946223;28;20109;-81
2022/06/06 03:56:56;;;;;;;9.55;4.40;;;13.70;99.90;;;;;;4974998;28;20046;-81
2022/06/06 03:59:23;;;;;;;3.95;3.50;;;13.70;99.90;;;;;;4982955;28;20054;-81
2022/06/06 04:01:50;;;;;;;5.80;4.45;;;13.70;99.90;;;;;;4982824;28;20572;-81
2022/06/06 04:04:18;;;;;;;7.07;4.85;;;13.70;99.90;;;;;;4967121;28;20439;-82
2022/06/06 04:06:46;;;;;;;5.55;4.68;;;13.70;99.90;;;;;;4982298;28;20046;-81
2022/06/06 04:09:12;;;;;;;5.88;5.32;;;13.70;99.90;;;;;;4984288;28;20053;-81
2022/06/06 04:11:55;;;;;;;6.55;5.50;;;13.70;99.90;;;;;;4984402;28;20504;-81
2022/06/06 04:14:49;;;;;;;9.57;5.95;;;13.70;99.90;;;;;;4983999;28;20057;-81
2022/06/06 04:17:30;;;;;;;6.60;5.78;;;13.70;99.90;;;;;;4998426;28;20555;-81
2022/06/06 04:20:22;;;;;;;11.00;6.60;;;13.70;99.90;;;;;;4984369;28;20488;-81
2022/06/06 04:23:00;;;;;;;7.97;6.45;;;13.70;99.90;;;;;;4972804;28;20344;-81
2022/06/06 04:25:47;;;;;;;8.80;6.80;;;13.70;99.90;;;;;;4981793;28;20065;-82
2022/06/06 04:28:37;;;;;;;8.65;6.45;;;13.80;99.90;;;;;;4983885;28;20042;-81
2022/06/06 04:31:26;;;;;;;9.35;8.27;;;13.80;99.90;;;;;;4965764;28;20038;-81
2022/06/06 04:34:11;;;;;;;11.65;8.23;;;13.70;99.90;;;;;;4984034;28;20141;-82
2022/06/06 04:37:15;;;;;;;13.10;9.23;;;13.70;99.90;;;;;;4982666;28;20049;-81
2022/06/06 04:40:14;;;;;;;12.93;9.40;;;13.70;99.90;;;;;;4961598;28;20494;-81
2022/06/06 04:42:57;;;;;;;13.45;7.75;;;13.80;99.90;;;;;;4998643;28;20050;-81
2022/06/06 04:45:40;;;;;;;10.23;7.65;;;13.80;99.90;;;;;;4983329;28;20545;-81
2022/06/06 04:48:06;;;;;;;9.05;5.57;;;13.80;99.90;;;;;;4997755;28;20548;-81
2022/06/06 04:50:33;;;;;;;8.75;5.30;;;13.80;99.90;;;;;;4983909;28;20093;-82
2022/06/06 04:53:06;;;;;;;4.05;2.85;;;13.80;99.90;;;;;;4982534;28;20049;-81
2022/06/06 04:55:36;;;;;;;2.92;2.25;;;13.80;99.90;;;;;;4978847;28;20420;-81
2022/06/06 04:58:03;;;;;;;6.38;2.95;;;13.70;99.90;;;;;;4963182;28;20045;-81
2022/06/06 05:00:37;;;;;;;3.30;1.92;;;13.70;99.90;;;;;;4964145;28;20047;-81
2022/06/06 05:03:03;;;;;;;3.63;3.15;;;13.70;99.90;;;;;;4963353;28;20425;-81
2022/06/06 05:05:49;;;;;;;2.30;2.10;;;13.60;99.90;;;;;;4963077;28;20585;-81
2022/06/06 05:08:52;;;;;;;4.55;3.00;;;13.60;99.90;;;;;;4960856;28;20105;-81
2022/06/06 05:11:26;;;;;;;3.33;3.08;;;13.60;99.90;;;;;;4956454;28;20065;-80
2022/06/06 05:14:16;;;;;;;3.33;2.83;;;13.60;99.90;;;;;;4982680;28;20438;-81
2022/06/06 05:16:58;;;;;;;4.10;3.45;;;13.60;99.90;;;;;;4997625;28;20130;-81
2022/06/06 05:19:47;;;;;;;4.80;3.37;;;13.60;99.90;;;;;;4982336;28;20034;-81
2022/06/06 05:22:43;;;;;;;2.28;2.17;;;13.60;99.90;;;;;;4996903;28;20057;-81
2022/06/06 05:25:33;;;;;;;4.57;2.63;;;13.50;99.90;;;;;;4982794;28;20046;-81
2022/06/06 05:28:26;;;;;;;2.50;2.13;;;13.50;99.90;;;;;;4982765;28;20038;-81
2022/06/06 05:30:56;;;;;;;2.42;2.03;;;13.50;99.90;;;;;;4982085;28;20104;-80
2022/06/06 05:33:42;;;;;;;3.90;2.47;;;13.50;99.90;;;;;;4982514;28;20046;-80
2022/06/06 05:36:18;;;;;;;4.07;2.80;;;13.50;99.90;;;;;;4981807;28;20046;-81
2022/06/06 05:39:03;;;;;;;3.42;2.83;;;13.50;99.90;;;;;;4981184;28;20038;-81
2022/06/06 05:41:32;;;;;;;3.90;3.10;;;13.50;99.90;;;;;;4982072;28;20173;-81
2022/06/06 05:44:09;;;;;;;4.38;3.60;;;13.50;99.90;;;;;;4981627;28;20440;-81
2022/06/06 05:46:55;;;;;;;9.15;4.43;;;13.50;99.90;;;;;;4982414;28;20121;-80
2022/06/06 05:49:26;;;;;;;6.28;4.15;;;13.50;99.90;;;;;;4964334;28;20050;-81
2022/06/06 05:52:13;;;;;;;9.33;4.60;;;13.40;99.90;;;;;;4981179;28;20043;-81
2022/06/06 05:54:59;;;;;;;3.92;2.55;;;13.30;99.90;;;;;;4982210;28;20285;-80
2022/06/06 05:57:53;;;;;;;11.80;4.25;;;13.30;99.90;;;;;;4981837;28;20046;-82
2022/06/06 06:00:37;;;;;;;6.85;4.13;;;13.30;99.90;;;;;;4981969;28;20042;-81
2022/06/06 06:03:36;;;;;;;4.80;4.32;;;13.30;99.90;;;;;;4980623;28;20053;-81
2022/06/06 06:06:20;;;;;;;3.95;2.47;;;13.30;99.90;;;;;;4980292;28;20057;-81
2022/06/06 06:09:03;;;;;;;3.92;2.50;;;13.30;99.90;;;;;;4980722;28;20046;-81
2022/06/06 06:11:54;;;;;;;4.00;2.38;;;13.20;99.90;;;;;;4981311;28;20140;-81
2022/06/06 06:14:47;;;;;;;3.60;2.70;;;13.30;99.90;;;;;;4981907;28;20046;-81
2022/06/06 06:17:17;;;;;;;3.90;2.63;;;13.30;99.90;;;;;;4981548;28;20766;-81
2022/06/06 06:19:49;;;;;;;4.30;3.40;;;13.20;99.90;;;;;;4981731;28;20057;-81
2022/06/06 06:22:17;;;;;;;6.95;3.78;;;13.20;99.90;;;;;;4980864;28;20054;-81
2022/06/06 06:24:44;;;;;;;9.00;3.95;;;13.20;99.90;;;;;;4981907;28;20047;-81
2022/06/06 06:27:12;;;;;;;5.30;2.83;;;13.20;99.90;;;;;;4954517;28;20049;-81
2022/06/06 06:29:37;;;;;;;3.90;3.05;;;13.20;99.90;;;;;;4980625;28;20050;-82
2022/06/06 06:32:42;;;;;;;4.45;2.97;;;13.20;99.90;;;;;;4980899;28;20034;-81
2022/06/06 06:35:24;;;;;;;7.30;2.47;;;13.20;99.90;;;;;;4981638;28;20050;-81
2022/06/06 06:37:59;;;;;;;2.03;1.85;;;13.20;99.90;;;;;;4963425;28;20125;-80
2022/06/06 06:40:52;;;;;;;6.15;2.38;;;13.20;99.90;;;;;;4981687;28;20054;-81
2022/06/06 06:43:52;;;;;;;3.20;2.00;;;13.20;99.90;;;;;;4981553;28;20089;-81
2022/06/06 06:46:27;;;;;;;2.58;2.13;;;13.10;99.90;;;;;;4962219;28;20046;-80
2022/06/06 06:49:10;;;;;;;3.97;2.25;;;13.10;99.90;;;;;;4964666;28;20058;-80
2022/06/06 06:51:54;;;;;;;2.38;1.90;;;13.20;99.90;;;;;;4965117;28;20509;-81
2022/06/06 06:54:41;;;;;;;2.15;1.95;;;13.20;99.90;;;;;;4964203;28;20105;-81
2022/06/06 06:57:20;;;;;;;5.75;1.83;;;13.20;99.90;;;;;;4964670;28;20054;-81
2022/06/06 07:00:01;;;;;;;1.95;1.80;;;13.20;99.90;;;;;;4965660;28;20039;-81
2022/06/06 07:08:53;;;;;;;1.90;1.38;;;13.30;99.90;;;;;;4984010;28;20551;-81
2022/06/06 07:11:52;;;;;;;2.10;1.90;;;13.40;99.90;;;;;;4984327;28;20082;-81
2022/06/06 07:14:40;;;;;;;4.32;1.77;;;13.40;99.90;;;;;;4982969;28;20062;-81
2022/06/06 07:17:08;;;;;;;4.57;1.85;;;13.50;99.90;;;;;;4984928;28;20551;-81
2022/06/06 07:19:45;;;;;;;6.00;2.72;;;13.60;99.90;;;;;;4984607;28;20540;-81
2022/06/06 07:22:12;;;;;;;3.25;2.10;;;13.60;99.90;;;;;;4983518;28;20034;-81
2022/06/06 07:24:40;;;;;;;11.68;2.75;;;13.60;99.90;;;;;;4983234;28;20125;-82
2022/06/06 07:27:09;;;;;;;2.58;1.75;;;13.60;99.90;;;;;;4984985;28;20129;-81
2022/06/06 07:29:34;;;;;;;1.83;1.25;;;13.60;99.90;;;;;;4984298;28;20057;-81
2022/06/06 07:32:12;;;;;;;4.20;2.28;;;13.60;99.90;;;;;;4983523;28;20050;-81
2022/06/06 07:35:03;;;;;;;2.03;1.70;;;13.60;99.90;;;;;;4984320;28;20056;-80
2022/06/06 07:37:29;;;;;;;2.07;1.37;;;13.60;99.90;;;;;;4982810;28;20100;-81
2022/06/06 07:40:21;;;;;;;3.72;2.28;;;13.60;99.90;;;;;;4984321;28;20058;-80
2022/06/06 07:43:35;;;;;;;2.40;2.22;;;13.60;99.90;;;;;;4984047;28;20375;-80
2022/06/06 07:46:25;;;;;;;2.65;1.50;;;13.60;99.90;;;;;;4967343;28;20413;-81
2022/06/06 07:49:00;;;;;;;3.22;1.85;;;13.70;99.90;;;;;;4984321;28;20050;-81
2022/06/06 07:51:43;;;;;;;2.78;2.45;;;13.70;99.90;;;;;;4983534;28;20401;-81
2022/06/06 07:54:47;;;;;;;4.72;2.25;;;13.70;99.90;;;;;;4983333;28;20050;-81
2022/06/06 07:57:38;;;;;;;3.00;1.75;;;13.70;99.90;;;;;;4983829;28;20136;-81
2022/06/06 08:00:22;;;;;;;1.95;1.75;;;13.70;99.90;;;;;;4965846;28;20051;-81
2022/06/06 08:02:59;;;;;;;2.10;1.92;;;13.70;99.90;;;;;;4984247;28;20113;-81
2022/06/06 08:05:27;;;;;;;1.58;1.48;;;13.70;99.90;;;;;;4983551;28;20046;-81
2022/06/06 08:08:40;;;;;;;1.70;1.60;;;13.60;99.90;;;;;;4982933;28;20121;-81
2022/06/06 08:11:34;;;;;;;3.63;1.77;;;13.60;99.90;;;;;;4975407;28;20552;-81
2022/06/06 08:14:23;;;;;;;3.67;1.80;;;13.60;99.90;;;;;;4972600;28;20054;-82
2022/06/06 08:17:33;;;;;;;2.38;1.48;;;13.80;99.90;;;;;;4982458;28;20096;-81
2022/06/06 08:20:17;;;;;;;4.30;1.48;;;13.80;99.90;;;;;;4961841;28;20560;-81
2022/06/06 08:22:44;;;;;;;1.90;1.50;;;13.80;99.90;;;;;;4977192;28;20416;-80
2022/06/06 08:25:14;;;;;;;2.63;1.73;;;13.90;99.90;;;;;;4973222;28;20046;-79
2022/06/06 08:27:47;;;;;;;2.10;1.95;;;13.80;99.90;;;;;;4981134;28;20049;-80
2022/06/06 08:30:14;;;;;;;2.58;2.00;;;13.80;99.90;;;;;;4979591;28;20050;-80
2022/06/06 08:32:40;;;;;;;3.58;2.17;;;13.80;99.90;;;;;;4968664;28;20054;-81
2022/06/06 08:35:06;;;;;;;2.88;1.17;;;13.80;99.90;;;;;;4977685;28;20035;-82
2022/06/06 08:37:36;;;;;;;1.80;1.40;;;13.80;99.90;;;;;;4975844;28;20038;-80
2022/06/06 08:40:22;;;;;;;5.88;1.30;;;13.80;99.90;;;;;;4978944;28;20129;-81
2022/06/06 08:43:06;;;;;;;2.97;1.23;;;13.90;99.90;;;;;;4972730;28;20081;-81
2022/06/06 08:45:59;;;;;;;1.90;1.63;;;13.90;99.90;;;;;;4996655;28;20129;-80
2022/06/06 08:48:49;;;;;;;3.50;1.58;;;13.90;99.90;;;;;;4975654;28;20054;-81
2022/06/06 08:51:44;;;;;;;3.05;2.20;;;13.90;99.90;;;;;;4978957;28;20039;-80
2022/06/06 08:54:18;;;;;;;3.55;1.95;;;13.90;99.90;;;;;;4968307;28;20142;-80
2022/06/06 08:56:59;;;;;;;4.55;1.60;;;13.90;99.90;;;;;;4975808;28;20113;-79
2022/06/06 08:59:57;;;;;;;9.27;1.83;;;14.00;99.90;;;;;;4976339;28;20054;-81
2022/06/06 09:02:44;;;;;;;4.97;2.38;;;14.00;99.90;;;;;;4969953;28;20045;-81
2022/06/06 09:05:47;;;;;;;3.78;2.00;;;14.00;99.90;;;;;;4977093;28;20108;-80
2022/06/06 09:08:37;;;;;;;3.90;2.13;;;14.10;99.90;;;;;;4973599;28;20081;-83
2022/06/06 09:11:29;;;;;;;4.65;2.60;;;14.20;99.90;;;;;;4972297;28;20038;-81
2022/06/06 09:14:14;;;;;;;4.28;2.92;;;14.20;99.90;;;;;;4987901;28;20140;-81
2022/06/06 09:16:55;;;;;;;4.80;4.03;;;14.10;99.90;;;;;;4997083;28;20038;-82
2022/06/06 09:19:30;;;;;;;9.93;3.75;;;14.20;99.90;;;;;;4973095;28;20050;-81
2022/06/06 09:22:28;;;;;;;13.55;4.10;;;14.20;99.90;;;;;;4979409;28;20054;-81
2022/06/06 09:25:18;;;;;;;9.18;3.97;;;14.20;99.90;;;;;;4980510;28;20416;-81
2022/06/06 09:28:22;;;;;;;6.15;3.75;;;14.20;99.90;;;;;;4965853;28;20049;-81
2022/06/06 09:31:15;;;;;;;4.57;3.13;;;14.30;99.90;;;;;;4968092;28;20366;-84
2022/06/06 09:34:22;;;;;;;6.68;4.10;;;14.40;99.90;;;;;;4973094;28;20062;-82
2022/06/06 09:37:07;;;;;;;9.98;3.85;;;14.50;99.90;;;;;;4927862;28;20066;-84
2022/06/06 09:40:06;;;;;;;3.30;3.10;;;14.60;99.90;;;;;;4968540;28;20034;-83
2022/06/06 09:42:35;;;;;;;4.68;4.22;;;14.70;99.90;;;;;;4975620;28;20149;-83
2022/06/06 09:45:27;;;;;;;5.00;3.30;;;14.70;99.90;;;;;;4971133;28;20073;-82
2022/06/06 09:48:39;;;;;;;6.53;4.53;;;14.70;99.90;;;;;;4972535;28;20488;-78
2022/06/06 09:51:29;;;;;;;3.55;3.25;;;14.80;99.90;;;;;;4975008;28;20081;-82
2022/06/06 10:00:36;;;;;;;4.63;2.30;;;14.80;99.90;;;;;;4987142;28;20086;-82
2022/06/06 10:03:23;;;;;;;3.63;2.05;;;14.70;99.90;;;;;;4976390;28;20125;-81
2022/06/06 10:06:08;;;;;;;3.15;1.88;;;14.60;99.90;;;;;;4979761;28;20587;-83
2022/06/06 10:08:52;;;;;;;2.70;1.67;;;14.70;99.90;;;;;;4970653;28;20053;-81
2022/06/06 10:11:36;;;;;;;1.92;1.67;;;14.70;99.90;;;;;;4980963;28;20070;-86
2022/06/06 10:14:17;;;;;;;2.38;2.15;;;14.70;99.90;;;;;;4981033;28;20049;-88
2022/06/06 10:17:07;;;;;;;1.73;1.60;;;14.80;99.90;;;;;;4980631;28;20054;-84
2022/06/06 10:19:53;;;;;;;1.15;1.08;;;14.90;99.90;;;;;;4981607;28;20034;-84
2022/06/06 10:22:32;;;;;;;1.27;1.23;;;15.10;99.90;;;;;;4969988;28;20445;-82
2022/06/06 10:25:30;;;;;;;3.10;1.90;;;15.20;99.90;;;;;;4980992;28;20050;-82
2022/06/06 10:28:20;;;;;;;5.88;2.10;;;15.30;99.90;;;;;;4976999;28;20066;-84
2022/06/06 10:31:01;;;;;;;1.52;1.42;;;15.30;99.90;;;;;;4973216;28;20101;-82
2022/06/06 10:33:36;;;;;;;6.50;1.33;;;15.30;99.90;;;;;;4975894;28;20473;-81
2022/06/06 10:36:19;;;;;;;2.42;1.52;;;15.30;99.90;;;;;;4977588;28;20046;-83
2022/06/06 10:39:09;;;;;;;3.70;1.83;;;15.30;99.90;;;;;;4974892;28;20085;-81
2022/06/06 10:42:10;;;;;;;0.98;0.98;;;15.20;99.90;;;;;;4983853;28;20060;-80
2022/06/06 10:45:10;;;;;;;1.95;1.23;;;15.30;99.90;;;;;;4976970;28;20117;-80
2022/06/06 10:48:16;;;;;;;3.42;1.33;;;15.20;99.90;;;;;;4978483;28;20061;-80
2022/06/06 10:53:44;;;;;;;4.38;1.05;;;15.20;99.90;;;;;;4981429;28;20100;-80
2022/06/06 10:56:43;;;;;;;4.97;1.95;;;15.10;99.90;;;;;;4985488;28;20046;-80
2022/06/06 10:59:20;;;;;;;0.93;0.93;;;15.10;99.90;;;;;;4965866;28;20038;-79
2022/06/06 11:02:01;;;;;;;4.10;1.38;;;15.10;99.90;;;;;;4965136;28;20082;-80
2022/06/06 11:05:04;;;;;;;1.30;1.20;;;15.10;99.90;;;;;;4983357;28;20065;-80
2022/06/06 11:07:51;;;;;;;1.17;1.15;;;15.00;99.90;;;;;;4983169;28;20038;-80
2022/06/06 11:10:45;;;;;;;2.03;1.85;;;15.00;99.90;;;;;;4983646;28;20050;-80
2022/06/06 11:13:29;;;;;;;2.03;1.50;;;14.90;99.90;;;;;;4979056;28;20084;-80
2022/06/06 11:16:29;;;;;;;1.50;1.40;;;14.80;99.90;;;;;;4983167;28;20065;-81
2022/06/06 11:19:26;;;;;;;2.17;1.92;;;14.70;99.90;;;;;;4976842;28;20746;-79
2022/06/06 11:22:13;;;;;;;1.92;1.73;;;14.70;99.90;;;;;;4975042;28;20546;-83
2022/06/06 11:24:57;;;;;;;1.73;1.63;;;14.60;99.90;;;;;;4977115;28;20516;-85
2022/06/06 11:27:33;;;;;;;2.63;1.73;;;14.60;99.90;;;;;;4984487;28;20050;-84
2022/06/06 11:30:26;;;;;;;2.97;2.78;;;14.60;99.90;;;;;;4974843;28;20047;-80
2022/06/06 11:33:11;;;;;;;2.72;2.40;;;14.70;99.90;;;;;;4985141;28;20149;-80
2022/06/06 11:35:58;;;;;;;4.22;1.92;;;14.60;99.90;;;;;;4981825;28;20066;-80
2022/06/06 11:38:45;;;;;;;4.95;2.60;;;14.70;99.90;;;;;;4993057;28;20125;-81
2022/06/06 11:41:15;;;;;;;2.78;2.00;;;14.70;99.90;;;;;;4963261;28;20109;-80
2022/06/06 11:43:51;;;;;;;2.17;2.03;;;14.70;99.90;;;;;;4963727;28;20477;-80
2022/06/06 11:46:38;;;;;;;7.75;2.80;;;14.70;99.90;;;;;;4982136;28;20130;-83
2022/06/06 11:49:25;;;;;;;2.42;2.05;;;14.70;99.90;;;;;;4979196;28;20057;-78
2022/06/06 11:52:08;;;;;;;3.13;2.17;;;14.70;99.90;;;;;;4968301;28;20046;-75
2022/06/06 11:54:52;;;;;;;2.50;2.30;;;14.70;99.90;;;;;;4956503;28;20070;-83
2022/06/06 11:57:51;;;;;;;3.63;2.53;;;14.70;99.90;;;;;;4978111;28;20129;-83
2022/06/06 12:00:33;;;;;;;4.40;2.40;;;14.70;99.90;;;;;;4981507;28;20050;-81
2022/06/06 12:03:23;;;;;;;3.60;2.53;;;14.60;99.90;;;;;;4973546;28;20070;-81
2022/06/06 12:06:19;;;;;;;1.50;1.40;;;14.60;99.90;;;;;;4964944;28;20054;-80
2022/06/06 12:09:00;;;;;;;3.17;1.95;;;14.60;99.90;;;;;;4981822;28;20050;-86
2022/06/06 12:11:50;;;;;;;3.22;1.70;;;14.50;99.90;;;;;;4977074;28;20058;-85
2022/06/06 12:14:34;;;;;;;2.60;1.50;;;14.40;99.90;;;;;;4975114;28;20546;-89
2022/06/06 12:17:18;;;;;;;4.80;1.65;;;14.30;99.90;;;;;;4974787;28;20054;-81
2022/06/06 12:20:15;;;;;;;2.17;1.92;;;14.20;99.90;;;;;;4974992;28;20050;-83
2022/06/06 12:23:15;;;;;;;1.25;1.17;;;14.10;99.90;;;;;;4976572;28;20042;-84
2022/06/06 12:25:41;;;;;;;2.35;1.35;;;14.00;99.90;;;;;;4978124;28;20096;-86
2022/06/06 12:28:34;;;;;;;1.85;1.73;;;14.00;99.90;;;;;;4979925;28;20293;-84
2022/06/06 12:31:34;;;;;;;2.35;1.65;;;13.90;99.90;;;;;;4982284;28;20129;-85
2022/06/06 12:34:06;;;;;;;3.50;1.85;;;14.00;99.90;;;;;;4981651;28;20061;-85
2022/06/06 12:36:56;;;;;;;3.10;1.83;;;14.00;99.90;;;;;;4980591;28;20050;-81
2022/06/06 12:39:33;;;;;;;2.75;2.55;;;14.00;99.90;;;;;;4982784;28;20046;-87
2022/06/06 12:42:07;;;;;;;5.60;2.05;;;14.00;99.90;;;;;;4960611;28;20050;-84
2022/06/06 12:44:54;;;;;;;7.57;3.08;;;14.00;99.90;;;;;;4979751;28;20050;-82
2022/06/06 12:47:49;;;;;;;3.30;2.50;;;14.00;99.90;;;;;;4981131;28;20458;-84
2022/06/06 12:50:33;;;;;;;4.30;2.47;;;14.00;99.90;;;;;;4980759;28;20126;-82
2022/06/06 12:53:23;;;;;;;4.68;2.78;;;14.10;99.90;;;;;;4981683;28;20050;-82
2022/06/06 12:56:26;;;;;;;6.20;3.13;;;14.10;99.90;;;;;;4981131;28;20521;-82
2022/06/06 12:59:25;;;;;;;3.13;2.83;;;14.10;99.90;;;;;;4979807;28;20339;-82
2022/06/06 13:02:08;;;;;;;2.42;2.08;;;14.10;99.90;;;;;;4981605;28;20124;-82
2022/06/06 13:04:36;;;;;;;;;;;14.10;99.90;;;;;;4982562;28;20452;-82
2022/06/06 13:07:26;;;;;;;2.38;1.58;;;14.10;99.90;;;;;;4980121;28;20226;-82
2022/06/06 13:10:31;;;;;;;1.25;1.10;;;14.10;99.90;;;;;;4981581;28;20165;-82
2022/06/06 13:13:18;;;;;;;2.05;1.00;;;14.10;99.90;;;;;;4980379;28;20043;-83
2022/06/06 13:15:53;;;;;;;4.93;1.63;;;14.10;99.90;;;;;;4981326;28;20075;-83
2022/06/06 13:19:04;;;;;;;2.05;1.08;;;14.10;99.90;;;;;;4979981;28;20133;-83
2022/06/06 13:21:42;;;;;;;0.90;0.77;;;14.10;99.90;;;;;;4980989;28;20046;-84
2022/06/06 13:24:07;;;;;;;1.48;1.13;;;14.10;99.90;;;;;;4980294;28;20047;-84
2022/06/06 13:26:52;;;;;;;0.82;0.38;;;14.10;99.90;;;;;;4981256;28;20293;-83
2022/06/06 13:29:27;;;;;;;1.45;0.77;;;14.10;99.90;;;;;;4980762;28;20058;-84
2022/06/06 13:32:04;;;;;;;0.80;0.70;;;14.00;99.90;;;;;;4980102;28;20416;-84
2022/06/06 13:34:48;;;;;;;3.40;0.47;;;14.10;99.90;;;;;;4980551;28;20045;-83
2022/06/06 13:37:18;;;;;;;0.68;0.68;;;14.10;99.90;;;;;;4979890;28;20488;-83
2022/06/06 13:39:59;;;;;;;1.17;0.45;;;14.10;99.90;;;;;;4960345;28;20047;-82
2022/06/06 13:42:55;;;;;;;5.63;0.50;;;14.10;99.90;;;;;;4970325;28;20042;-83
2022/06/06 13:45:44;;;;;;;0.75;0.50;;;14.10;99.90;;;;;;4980969;28;20870;-83
2022/06/06 13:48:13;;;;;;;0.63;0.63;;;14.00;99.90;;;;;;4979675;28;20053;-83
2022/06/06 13:50:48;;;;;;;0.98;0.80;;;14.00;99.90;;;;;;4980027;28;20057;-83
2022/06/06 13:53:17;;;;;;;2.70;0.75;;;14.00;99.90;;;;;;4980544;28;20053;-83
2022/06/06 13:55:43;;;;;;;0.73;0.60;;;14.00;99.90;;;;;;4981632;28;20042;-82
2022/06/06 13:58:25;;;;;;;0.82;0.68;;;13.90;99.90;;;;;;4980252;28;20089;-83
2022/06/06 14:01:09;;;;;;;4.45;0.98;;;13.90;99.90;;;;;;4980528;28;20406;-83
2022/06/06 14:04:06;;;;;;;1.63;1.30;;;13.80;99.90;;;;;;4979222;28;20097;-82
2022/06/06 14:06:51;;;;;;;1.73;0.90;;;13.80;99.90;;;;;;4978629;28;20335;-82
2022/06/06 14:09:17;;;;;;;0.70;0.70;;;13.90;99.90;;;;;;4979202;28;20078;-82
2022/06/06 14:11:54;;;;;;;1.95;1.20;;;13.80;99.90;;;;;;4980603;28;20198;-81
2022/06/06 14:14:21;;;;;;;1.17;0.95;;;13.90;99.90;;;;;;4980130;28;20085;-81
2022/06/06 14:16:56;;;;;;;2.63;1.23;;;13.90;99.90;;;;;;4980840;28;20053;-81